Terminal Aerodrome Forecast
Issued by NWS

Home | Current Version | Previous Version | Graphics & Text | Print | Product List | Glossary On
Versions: 1 2 3 4 5 6 7 8 9 10 11 12 13 14 15 16 17 18 19 20 21 22 23 24 25 26 27
000
FTUS43 KLOT 032112 AAA
TAFGYY
TAF AMD
KGYY 032112Z 0321/0418 25010KT P6SM SCT060 BKN090
     FM040300 23011KT P6SM VCSH SCT040 BKN060
      TEMPO 0407/0410 4SM SHRA BKN015 OVC040
     FM041000 35020G30KT P6SM VCSH BKN007 OVC012
     FM041600 01020G30KT P6SM VCSH BKN020 OVC030=

USA.gov is the U.S. government's official web portal to all federal, state and local government web resources and services.